createdAt,value
2019-02-14T00:00:18.884Z,10.45
2019-02-14T00:01:23.082Z,7.80
2019-02-14T00:02:27.329Z,9.25
2019-02-14T00:03:31.550Z,10.18
2019-02-14T00:04:35.718Z,8.93
2019-02-14T00:05:39.997Z,11.80
2019-02-14T00:06:44.163Z,13.18
2019-02-14T00:07:48.440Z,9.95
2019-02-14T00:08:52.671Z,13.20
2019-02-14T00:09:56.807Z,10.75
2019-02-14T00:11:01.105Z,9.68
2019-02-14T00:12:05.355Z,12.03
2019-02-14T00:13:09.967Z,8.58
2019-02-14T00:14:14.291Z,8.95
2019-02-14T00:15:18.683Z,9.05
2019-02-14T00:16:22.939Z,9.55
2019-02-14T00:17:27.129Z,8.63
2019-02-14T00:18:31.277Z,12.10
2019-02-14T00:19:35.433Z,14.33
2019-02-14T00:20:39.760Z,7.25
2019-02-14T00:21:43.875Z,8.08
2019-02-14T00:22:48.196Z,9.75
2019-02-14T00:23:52.353Z,8.95
2019-02-14T00:24:56.502Z,8.80
2019-02-14T00:26:00.785Z,9.55
2019-02-14T00:27:05.037Z,8.88
2019-02-14T00:28:09.187Z,12.43
2019-02-14T00:29:13.357Z,10.03
2019-02-14T00:30:17.621Z,8.53
2019-02-14T00:31:21.979Z,9.55
2019-02-14T00:32:26.336Z,8.93
2019-02-14T00:33:30.534Z,9.60
2019-02-14T00:34:34.673Z,7.97
2019-02-14T00:35:38.994Z,9.25
2019-02-14T00:36:43.184Z,8.90
2019-02-14T00:37:47.384Z,10.90
2019-02-14T00:38:51.543Z,12.80
2019-02-14T00:39:55.768Z,9.40
2019-02-14T00:40:59.945Z,14.63
2019-02-14T00:42:04.234Z,8.38
2019-02-14T00:43:08.455Z,11.75
2019-02-14T00:44:12.735Z,9.33
2019-02-14T00:45:16.988Z,10.82
2019-02-14T00:46:21.192Z,11.97
2019-02-14T00:47:25.487Z,8.98
2019-02-14T00:48:29.651Z,12.23
2019-02-14T00:49:33.837Z,12.03
2019-02-14T00:50:38.021Z,7.50
2019-02-14T00:51:42.216Z,10.70
2019-02-14T00:52:46.506Z,10.50
2019-02-14T00:53:50.803Z,11.22
2019-02-14T00:54:55.058Z,11.10
2019-02-14T00:55:59.320Z,8.65
2019-02-14T00:57:03.612Z,14.30
2019-02-14T00:58:07.773Z,9.55
2019-02-14T00:59:12.083Z,10.08
2019-02-14T01:00:16.421Z,8.93
2019-02-14T01:01:20.659Z,7.78
2019-02-14T01:02:24.954Z,12.95
2019-02-14T01:03:29.272Z,9.95
2019-02-14T01:04:33.405Z,13.22
2019-02-14T01:05:37.587Z,12.58
2019-02-14T01:06:41.761Z,10.68
2019-02-14T01:07:45.930Z,8.50
2019-02-14T01:08:50.109Z,11.38
2019-02-14T01:09:54.398Z,13.95
2019-02-14T01:10:59.077Z,8.80
2019-02-14T01:12:04.923Z,13.80
2019-02-14T01:13:09.117Z,10.78
2019-02-14T01:14:13.369Z,9.70
2019-02-14T01:15:20.143Z,10.03
2019-02-14T01:16:24.324Z,11.85
2019-02-14T01:17:28.519Z,9.68
2019-02-14T01:18:32.665Z,13.93
2019-02-14T01:19:37.081Z,10.60
2019-02-14T01:20:41.251Z,10.40
2019-02-14T01:21:45.535Z,10.28
2019-02-14T01:22:49.944Z,6.78
2019-02-14T01:23:54.177Z,9.33
2019-02-14T01:24:58.427Z,10.78
2019-02-14T01:26:02.723Z,10.35
2019-02-14T01:27:07.052Z,11.78
2019-02-14T01:28:11.235Z,11.93
2019-02-14T01:29:15.414Z,15.95
2019-02-14T01:30:20.090Z,11.03
2019-02-14T01:31:24.424Z,9.65
2019-02-14T01:32:28.621Z,9.15
2019-02-14T01:33:32.869Z,11.65
2019-02-14T01:34:37.076Z,11.25
2019-02-14T01:35:42.180Z,8.13
2019-02-14T01:36:46.486Z,12.37
2019-02-14T01:37:50.683Z,8.63
2019-02-14T01:38:55.131Z,10.35
2019-02-14T01:39:59.265Z,8.38
2019-02-14T01:41:03.489Z,9.80
2019-02-14T01:42:07.783Z,9.03
2019-02-14T01:43:12.116Z,9.38
2019-02-14T01:44:16.657Z,8.63
2019-02-14T01:45:21.260Z,10.05
2019-02-14T01:46:25.487Z,10.38
2019-02-14T01:47:29.653Z,11.25
2019-02-14T01:48:33.857Z,10.20
2019-02-14T01:49:38.114Z,13.48
2019-02-14T01:50:42.304Z,12.23
2019-02-14T01:51:46.548Z,12.25
2019-02-14T01:52:50.779Z,10.53
2019-02-14T01:53:55.087Z,7.15
2019-02-14T01:54:59.303Z,11.03
2019-02-14T01:56:03.481Z,9.30
2019-02-14T01:57:07.783Z,9.68
2019-02-14T01:58:11.987Z,15.03
2019-02-14T01:59:16.243Z,7.85
2019-02-14T02:00:20.517Z,9.98
2019-02-14T02:01:25.039Z,8.38
2019-02-14T02:02:29.295Z,9.28
2019-02-14T02:03:33.615Z,10.08
2019-02-14T02:04:37.742Z,12.18
2019-02-14T02:05:50.425Z,13.22
2019-02-14T02:06:47.950Z,7.80
2019-02-14T02:07:52.255Z,11.20
2019-02-14T02:08:56.453Z,14.75
2019-02-14T02:10:00.624Z,8.50
2019-02-14T02:11:06.103Z,8.78
2019-02-14T02:12:10.247Z,11.03
2019-02-14T02:13:14.474Z,10.00
2019-02-14T02:14:18.665Z,14.00
2019-02-14T02:15:22.962Z,10.50
2019-02-14T02:16:27.261Z,11.38
2019-02-14T02:17:31.545Z,11.03
2019-02-14T02:18:37.018Z,11.60
2019-02-14T02:19:41.237Z,11.93
2019-02-14T02:20:45.505Z,9.53
2019-02-14T02:21:49.685Z,8.60
2019-02-14T02:22:53.944Z,8.83
2019-02-14T02:23:58.245Z,13.68
2019-02-14T02:25:03.223Z,8.95
2019-02-14T02:26:07.438Z,10.25
2019-02-14T02:27:11.652Z,9.43
2019-02-14T02:28:15.985Z,8.80
2019-02-14T02:29:20.126Z,8.15
2019-02-14T02:30:24.378Z,8.93
2019-02-14T02:31:28.579Z,9.65
2019-02-14T02:32:32.867Z,11.93
2019-02-14T02:33:37.155Z,9.08
2019-02-14T02:34:41.288Z,9.65
2019-02-14T02:35:45.560Z,12.20
2019-02-14T02:36:49.862Z,10.63
2019-02-14T02:37:54.052Z,6.47
2019-02-14T02:38:58.391Z,7.67
2019-02-14T02:40:02.682Z,12.10
2019-02-14T02:41:06.915Z,13.65
2019-02-14T02:42:11.214Z,16.17
2019-02-14T02:43:15.487Z,8.28
2019-02-14T02:44:19.970Z,10.82
2019-02-14T02:45:24.137Z,7.65
2019-02-14T02:46:28.346Z,9.48
2019-02-14T02:47:32.690Z,10.43
2019-02-14T02:48:36.993Z,7.87
2019-02-14T02:49:41.347Z,9.25
2019-02-14T02:50:45.669Z,9.88
2019-02-14T02:51:49.927Z,11.70
2019-02-14T02:52:54.208Z,7.80
2019-02-14T02:53:58.363Z,8.60
2019-02-14T02:55:02.559Z,7.78
2019-02-14T02:56:07.093Z,8.65
2019-02-14T02:57:11.386Z,8.90
2019-02-14T02:58:15.629Z,11.63
2019-02-14T02:59:19.935Z,9.35
2019-02-14T03:00:24.225Z,10.75
2019-02-14T03:01:28.560Z,10.05
2019-02-14T03:02:32.727Z,10.25
2019-02-14T03:03:36.866Z,12.50
2019-02-14T03:04:41.153Z,12.15
2019-02-14T03:05:45.404Z,10.32
2019-02-14T03:06:49.775Z,10.60
2019-02-14T03:07:54.009Z,9.28
2019-02-14T03:08:58.308Z,8.20
2019-02-14T03:10:02.500Z,7.95
2019-02-14T03:11:06.644Z,8.65
2019-02-14T03:12:11.061Z,11.75
2019-02-14T03:13:15.339Z,7.72
2019-02-14T03:14:19.606Z,7.87
2019-02-14T03:15:23.887Z,7.08
2019-02-14T03:16:28.175Z,7.55
2019-02-14T03:17:32.414Z,6.85
2019-02-14T03:18:36.624Z,8.38
2019-02-14T03:19:40.837Z,9.00
2019-02-14T03:20:45.020Z,9.70
2019-02-14T03:21:49.347Z,9.53
2019-02-14T03:22:53.645Z,8.40
2019-02-14T03:23:58.289Z,12.82
2019-02-14T03:25:02.455Z,9.33
2019-02-14T03:26:06.729Z,8.45
2019-02-14T03:27:10.973Z,10.20
2019-02-14T03:28:15.151Z,10.75
2019-02-14T03:29:19.443Z,10.43
2019-02-14T03:30:23.606Z,10.23
2019-02-14T03:31:27.880Z,6.75
2019-02-14T03:32:32.050Z,12.75
2019-02-14T03:33:36.284Z,9.23
2019-02-14T03:34:40.453Z,10.68
2019-02-14T03:35:44.623Z,6.53
2019-02-14T03:36:48.775Z,9.40
2019-02-14T03:37:53.092Z,7.95
2019-02-14T03:38:57.529Z,7.87
2019-02-14T03:40:01.782Z,10.72
2019-02-14T03:41:05.903Z,7.92
2019-02-14T03:42:10.055Z,11.83
2019-02-14T03:43:14.257Z,7.10
2019-02-14T03:44:18.453Z,11.57
2019-02-14T03:45:22.583Z,7.65
2019-02-14T03:46:26.874Z,11.48
2019-02-14T03:47:31.163Z,8.80
2019-02-14T03:48:35.456Z,10.05
2019-02-14T03:49:39.600Z,14.80
2019-02-14T03:50:43.865Z,9.33
2019-02-14T03:51:48.172Z,11.38
2019-02-14T03:52:52.294Z,10.10
2019-02-14T03:53:57.373Z,10.45
2019-02-14T03:55:01.767Z,9.33
2019-02-14T03:56:06.065Z,10.58
2019-02-14T03:57:10.268Z,12.80
2019-02-14T03:58:14.417Z,12.53
2019-02-14T03:59:18.531Z,8.25
2019-02-14T04:00:22.745Z,11.25
2019-02-14T04:01:26.993Z,10.30
2019-02-14T04:02:31.277Z,9.43
2019-02-14T04:03:35.437Z,7.22
2019-02-14T04:04:39.714Z,8.13
2019-02-14T04:05:43.891Z,9.63
2019-02-14T04:06:48.196Z,12.00
2019-02-14T04:07:52.391Z,7.97
2019-02-14T04:08:56.877Z,8.80
2019-02-14T04:10:01.047Z,8.35
2019-02-14T04:11:05.211Z,11.00
2019-02-14T04:12:09.412Z,11.88
2019-02-14T04:13:13.713Z,10.10
2019-02-14T04:14:17.903Z,10.08
2019-02-14T04:15:22.188Z,7.45
2019-02-14T04:16:26.343Z,11.15
2019-02-14T04:17:30.665Z,11.45
2019-02-14T04:18:34.881Z,10.63
2019-02-14T04:19:39.183Z,8.23
2019-02-14T04:20:43.360Z,11.83
2019-02-14T04:21:47.533Z,10.75
2019-02-14T04:22:51.701Z,9.70
2019-02-14T04:23:55.843Z,9.63
2019-02-14T04:25:00.003Z,12.07
2019-02-14T04:26:04.593Z,13.43
2019-02-14T04:27:08.841Z,15.05
2019-02-14T04:28:13.046Z,10.50
2019-02-14T04:29:17.202Z,9.75
2019-02-14T04:30:21.364Z,9.20
2019-02-14T04:31:25.660Z,8.23
2019-02-14T04:32:29.820Z,13.98
2019-02-14T04:33:34.055Z,8.80
2019-02-14T04:34:38.363Z,9.70
2019-02-14T04:35:42.807Z,10.60
2019-02-14T04:36:46.991Z,10.78
2019-02-14T04:37:51.187Z,11.28
2019-02-14T04:38:55.320Z,10.75
2019-02-14T04:39:59.528Z,9.30
2019-02-14T04:41:03.795Z,11.38
2019-02-14T04:42:07.951Z,12.50
2019-02-14T04:43:12.105Z,11.80
2019-02-14T04:44:16.303Z,12.93
2019-02-14T04:45:20.527Z,9.65
2019-02-14T04:46:25.256Z,11.20
2019-02-14T04:47:29.519Z,10.50
2019-02-14T04:48:33.774Z,10.85
2019-02-14T04:49:38.077Z,10.50
2019-02-14T04:50:42.369Z,9.73
2019-02-14T04:51:46.625Z,13.40
2019-02-14T04:52:50.912Z,11.43
2019-02-14T04:53:55.060Z,10.75
2019-02-14T04:54:59.243Z,11.15
2019-02-14T04:56:03.491Z,12.40
2019-02-14T04:57:07.673Z,12.78
2019-02-14T04:58:11.862Z,9.50
2019-02-14T04:59:16.169Z,8.40
2019-02-14T05:00:20.437Z,11.30
2019-02-14T05:01:24.747Z,10.40
2019-02-14T05:02:28.992Z,11.68
2019-02-14T05:03:33.157Z,12.03
2019-02-14T05:04:37.317Z,10.72
2019-02-14T05:05:41.421Z,10.63
2019-02-14T05:06:45.737Z,11.30
2019-02-14T05:07:50.025Z,16.90
2019-02-14T05:08:54.192Z,12.53
2019-02-14T05:09:58.561Z,14.00
2019-02-14T05:11:02.819Z,10.20
2019-02-14T05:12:07.144Z,12.13
2019-02-14T05:13:11.343Z,10.93
2019-02-14T05:14:15.535Z,13.25
2019-02-14T05:15:19.872Z,12.60
2019-02-14T05:16:24.133Z,14.58
2019-02-14T05:17:28.473Z,14.65
2019-02-14T05:18:32.617Z,13.58
2019-02-14T05:19:36.875Z,15.28
2019-02-14T05:20:41.252Z,12.85
2019-02-14T05:21:45.377Z,14.30
2019-02-14T05:22:49.589Z,11.55
2019-02-14T05:23:53.762Z,15.93
2019-02-14T05:24:58.091Z,11.65
2019-02-14T05:26:02.293Z,13.53
2019-02-14T05:27:06.491Z,13.60
2019-02-14T05:28:10.635Z,12.47
2019-02-14T05:29:14.907Z,15.45
2019-02-14T05:30:19.114Z,11.65
2019-02-14T05:31:23.331Z,19.27
2019-02-14T05:32:27.642Z,17.15
2019-02-14T05:33:31.911Z,17.23
2019-02-14T05:34:36.018Z,11.97
2019-02-14T05:35:40.316Z,12.63
2019-02-14T05:36:52.524Z,13.58
2019-02-14T05:37:50.330Z,14.78
2019-02-14T05:38:54.575Z,11.40
2019-02-14T05:39:58.810Z,11.45
2019-02-14T05:41:03.031Z,14.65
2019-02-14T05:42:07.649Z,10.95
2019-02-14T05:43:11.856Z,10.58
2019-02-14T05:44:16.117Z,12.23
2019-02-14T05:45:20.379Z,8.58
2019-02-14T05:46:24.693Z,12.20
2019-02-14T05:47:29.031Z,12.00
2019-02-14T05:48:33.165Z,13.05
2019-02-14T05:49:37.452Z,11.12
2019-02-14T05:50:41.733Z,10.08
2019-02-14T05:51:45.896Z,11.85
2019-02-14T05:52:50.155Z,11.18
2019-02-14T05:53:54.369Z,14.38
2019-02-14T05:54:58.612Z,9.65
2019-02-14T05:56:02.881Z,11.50
2019-02-14T05:57:07.070Z,11.50
2019-02-14T05:58:11.223Z,9.75
2019-02-14T05:59:15.408Z,9.90
2019-02-14T06:00:20.181Z,11.85
2019-02-14T06:01:24.691Z,12.13
2019-02-14T06:02:28.871Z,12.15
2019-02-14T06:03:33.019Z,12.10
2019-02-14T06:04:37.155Z,10.82
2019-02-14T06:05:41.701Z,10.90
2019-02-14T06:06:46.020Z,10.68
2019-02-14T06:07:50.613Z,12.50
2019-02-14T06:08:54.848Z,12.50
2019-02-14T06:09:58.965Z,12.13
2019-02-14T06:11:03.255Z,11.80
2019-02-14T06:12:07.407Z,11.30
2019-02-14T06:13:11.749Z,14.58
2019-02-14T06:14:16.056Z,11.30
2019-02-14T06:15:20.208Z,14.00
2019-02-14T06:16:24.383Z,13.38
2019-02-14T06:17:28.722Z,13.93
2019-02-14T06:18:32.917Z,15.05
2019-02-14T06:19:37.160Z,11.70
2019-02-14T06:20:41.830Z,16.42
2019-02-14T06:21:46.023Z,13.28
2019-02-14T06:22:50.241Z,14.53
2019-02-14T06:23:54.392Z,12.63
2019-02-14T06:24:58.646Z,11.10
2019-02-14T06:26:02.950Z,12.23
2019-02-14T06:27:07.271Z,11.63
2019-02-14T06:28:11.557Z,14.00
2019-02-14T06:29:15.725Z,12.85
2019-02-14T06:30:20.055Z,16.10
2019-02-14T06:31:24.243Z,11.83
2019-02-14T06:32:28.405Z,9.75
2019-02-14T06:33:32.736Z,11.93
2019-02-14T06:34:36.919Z,12.75
2019-02-14T06:35:41.245Z,14.07
2019-02-14T06:36:45.515Z,13.88
2019-02-14T06:37:49.823Z,13.83
2019-02-14T06:38:54.129Z,12.10
2019-02-14T06:39:58.429Z,11.78
2019-02-14T06:41:03.680Z,14.35
2019-02-14T06:42:07.969Z,12.33
2019-02-14T06:43:12.209Z,9.28
2019-02-14T06:44:16.482Z,10.88
2019-02-14T06:45:20.807Z,10.03
2019-02-14T06:46:25.080Z,12.55
2019-02-14T06:47:29.417Z,12.82
2019-02-14T06:48:33.695Z,15.32
2019-02-14T06:49:37.879Z,13.95
2019-02-14T06:50:42.116Z,13.08
2019-02-14T06:51:46.353Z,13.53
2019-02-14T06:52:50.549Z,12.20
2019-02-14T06:53:54.819Z,13.05
2019-02-14T06:54:58.995Z,12.80
2019-02-14T06:56:03.286Z,13.15
2019-02-14T06:57:07.487Z,11.53
2019-02-14T06:58:12.862Z,9.05
2019-02-14T06:59:17.230Z,11.55
2019-02-14T07:00:21.493Z,10.60
2019-02-14T07:01:25.717Z,11.35
2019-02-14T07:02:29.899Z,10.13
2019-02-14T07:03:34.184Z,10.70
2019-02-14T07:04:38.423Z,11.60
2019-02-14T07:05:42.606Z,9.95
2019-02-14T07:06:46.847Z,12.53
2019-02-14T07:07:51.229Z,8.60
2019-02-14T07:08:55.549Z,9.23
2019-02-14T07:09:59.733Z,13.88
2019-02-14T07:11:03.897Z,10.68
2019-02-14T07:12:08.163Z,11.88
2019-02-14T07:13:12.413Z,12.73
2019-02-14T07:14:16.714Z,16.55
2019-02-14T07:15:20.903Z,20.72
2019-02-14T07:16:25.192Z,21.55
2019-02-14T07:17:29.342Z,25.75
2019-02-14T07:18:33.546Z,26.30
2019-02-14T07:19:37.864Z,38.30
2019-02-14T07:20:42.039Z,41.28
2019-02-14T07:21:46.269Z,44.77
2019-02-14T07:22:50.807Z,39.50
2019-02-14T07:23:55.056Z,35.98
2019-02-14T07:24:59.317Z,36.10
2019-02-14T07:26:03.509Z,34.08
2019-02-14T07:27:07.780Z,30.02
2019-02-14T07:28:11.909Z,27.13
2019-02-14T07:29:16.223Z,27.40
2019-02-14T07:30:20.873Z,29.95
2019-02-14T07:31:25.229Z,25.50
2019-02-14T07:32:29.478Z,25.27
2019-02-14T07:33:33.685Z,25.52
2019-02-14T07:34:37.963Z,23.30
2019-02-14T07:35:42.295Z,16.50
2019-02-14T07:36:46.507Z,18.90
2019-02-14T07:37:50.666Z,21.20
2019-02-14T07:38:54.942Z,59.67
2019-02-14T07:39:59.193Z,51.90
2019-02-14T07:41:03.472Z,40.67
2019-02-14T07:42:07.810Z,41.13
2019-02-14T07:43:12.060Z,25.12
2019-02-14T07:44:16.237Z,26.27
2019-02-14T07:45:20.485Z,26.35
2019-02-14T07:46:24.722Z,25.08
2019-02-14T07:47:28.943Z,26.82
2019-02-14T07:48:33.197Z,26.30
2019-02-14T07:49:37.379Z,26.15
2019-02-14T07:50:41.769Z,27.45
2019-02-14T07:51:46.044Z,22.27
2019-02-14T07:52:50.383Z,26.85
2019-02-14T07:53:54.595Z,22.13
2019-02-14T07:54:58.980Z,21.52
2019-02-14T07:56:03.227Z,21.33
2019-02-14T07:57:07.409Z,22.77
2019-02-14T07:58:11.664Z,20.88
2019-02-14T07:59:15.894Z,19.65
2019-02-14T08:00:20.185Z,18.77
2019-02-14T08:01:24.431Z,18.95
2019-02-14T08:02:28.659Z,18.55
2019-02-14T08:03:32.972Z,16.48
2019-02-14T08:04:37.159Z,12.50
2019-02-14T08:05:41.427Z,15.43
2019-02-14T08:06:45.719Z,16.12
2019-02-14T08:07:49.978Z,14.85
2019-02-14T08:08:54.331Z,10.88
2019-02-14T08:09:58.492Z,10.30
2019-02-14T08:11:02.629Z,14.47
2019-02-14T08:12:06.943Z,15.58
2019-02-14T08:13:11.104Z,14.03
2019-02-14T08:14:15.301Z,13.53
2019-02-14T08:15:19.641Z,14.87
2019-02-14T08:16:23.953Z,14.00
2019-02-14T08:17:28.248Z,17.77
2019-02-14T08:18:32.842Z,16.85
2019-02-14T08:19:37.036Z,14.60
2019-02-14T08:20:41.201Z,20.95
2019-02-14T08:21:45.521Z,18.23
2019-02-14T08:22:49.682Z,15.90
2019-02-14T08:23:53.863Z,20.32
2019-02-14T08:24:58.035Z,15.43
2019-02-14T08:26:10.361Z,15.48
2019-02-14T08:27:08.139Z,13.08
2019-02-14T08:28:12.308Z,18.82
2019-02-14T08:29:16.485Z,17.67
2019-02-14T08:30:20.819Z,12.95
2019-02-14T08:31:25.046Z,15.00
2019-02-14T08:32:29.322Z,14.58
2019-02-14T08:33:33.535Z,17.95
2019-02-14T08:34:37.845Z,14.70
2019-02-14T08:35:42.149Z,15.88
2019-02-14T08:36:46.686Z,17.05
2019-02-14T08:37:51.030Z,15.72
2019-02-14T08:38:55.320Z,15.98
2019-02-14T08:39:59.623Z,19.87
2019-02-14T08:41:03.879Z,16.80
2019-02-14T08:42:08.077Z,15.08
2019-02-14T08:43:12.238Z,19.37
2019-02-14T08:44:16.439Z,15.20
2019-02-14T08:45:20.617Z,17.30
2019-02-14T08:46:24.845Z,19.90
2019-02-14T08:47:29.133Z,15.03
2019-02-14T08:48:33.433Z,15.25
2019-02-14T08:49:37.689Z,14.45
2019-02-14T08:50:42.028Z,14.33
2019-02-14T08:51:46.247Z,15.25
2019-02-14T08:52:50.464Z,17.90
2019-02-14T08:53:54.593Z,18.02
2019-02-14T08:54:58.820Z,14.15
2019-02-14T08:56:03.003Z,15.58
2019-02-14T08:57:07.283Z,13.40
2019-02-14T08:58:11.609Z,17.80
2019-02-14T08:59:15.891Z,16.77
2019-02-14T09:00:20.429Z,19.02
2019-02-14T09:01:24.762Z,14.73
2019-02-14T09:02:28.906Z,15.25
2019-02-14T09:03:33.170Z,16.85
2019-02-14T09:04:37.476Z,17.73
2019-02-14T09:05:41.781Z,16.48
2019-02-14T09:06:45.949Z,17.77
2019-02-14T09:07:54.750Z,16.48
2019-02-14T09:08:56.229Z,13.93
2019-02-14T09:10:00.457Z,20.08
2019-02-14T09:11:04.657Z,17.55
2019-02-14T09:12:08.895Z,14.73
2019-02-14T09:13:17.287Z,17.57
2019-02-14T09:14:19.051Z,13.62
2019-02-14T09:15:23.283Z,19.42
2019-02-14T09:16:27.492Z,15.50
2019-02-14T09:17:31.819Z,18.67
2019-02-14T09:18:36.101Z,17.48
2019-02-14T09:19:40.409Z,18.70
2019-02-14T09:20:44.629Z,19.35
2019-02-14T09:21:48.759Z,18.45
2019-02-14T09:22:52.901Z,17.05
2019-02-14T09:23:57.586Z,15.65
2019-02-14T09:25:01.861Z,17.50
2019-02-14T09:26:06.068Z,26.10
2019-02-14T09:27:10.284Z,16.20
2019-02-14T09:28:14.458Z,15.30
2019-02-14T09:29:18.790Z,15.15
2019-02-14T09:30:23.125Z,16.12
2019-02-14T09:31:27.467Z,17.25
2019-02-14T09:32:31.894Z,17.05
2019-02-14T09:33:36.165Z,16.37
2019-02-14T09:34:40.335Z,35.03
2019-02-14T09:35:44.648Z,17.50
2019-02-14T09:36:48.915Z,22.32
2019-02-14T09:37:53.225Z,18.65
2019-02-14T09:38:57.565Z,17.87
2019-02-14T09:40:01.802Z,18.05
2019-02-14T09:41:06.093Z,17.25
2019-02-14T09:42:10.391Z,19.85
2019-02-14T09:43:14.673Z,15.50
2019-02-14T09:44:18.995Z,19.48
2019-02-14T09:45:23.294Z,19.25
2019-02-14T09:46:27.691Z,21.07
2019-02-14T09:47:31.970Z,22.45
2019-02-14T09:48:36.215Z,16.82
2019-02-14T09:49:40.399Z,19.25
2019-02-14T09:50:44.736Z,19.12
2019-02-14T09:51:49.361Z,19.30
2019-02-14T09:52:53.501Z,19.42
2019-02-14T09:53:57.691Z,15.65
2019-02-14T09:55:01.921Z,18.82
2019-02-14T09:56:06.195Z,21.27
2019-02-14T09:57:10.529Z,20.52
2019-02-14T09:58:14.860Z,18.02
2019-02-14T09:59:19.098Z,19.62
2019-02-14T10:00:23.366Z,22.20
2019-02-14T10:01:27.549Z,21.80
2019-02-14T10:02:31.825Z,20.90
2019-02-14T10:03:36.186Z,20.82
2019-02-14T10:04:40.947Z,20.52
2019-02-14T10:05:45.183Z,19.87
2019-02-14T10:06:49.486Z,24.25
2019-02-14T10:07:53.791Z,19.82
2019-02-14T10:08:58.092Z,24.18
2019-02-14T10:10:02.283Z,26.80
2019-02-14T10:11:06.626Z,21.27
2019-02-14T10:12:10.808Z,28.35
2019-02-14T10:13:15.141Z,19.00
2019-02-14T10:14:19.441Z,22.85
2019-02-14T10:15:23.741Z,19.25
2019-02-14T10:16:27.953Z,25.97
2019-02-14T10:17:32.135Z,22.55
2019-02-14T10:18:36.391Z,26.20
2019-02-14T10:19:40.631Z,21.02
2019-02-14T10:20:44.837Z,24.20
2019-02-14T10:21:49.085Z,18.20
2019-02-14T10:22:53.399Z,29.85
2019-02-14T10:23:57.720Z,20.60
2019-02-14T10:25:01.912Z,20.17
2019-02-14T10:26:06.488Z,21.05
2019-02-14T10:27:10.710Z,21.05
2019-02-14T10:28:15.064Z,17.90
2019-02-14T10:29:19.381Z,22.75
2019-02-14T10:30:23.650Z,20.85
2019-02-14T10:31:27.955Z,17.48
2019-02-14T10:32:32.193Z,18.80
2019-02-14T10:33:36.406Z,22.22
2019-02-14T10:34:40.589Z,20.35
2019-02-14T10:35:44.880Z,25.48
2019-02-14T10:36:49.083Z,20.68
2019-02-14T10:37:53.623Z,27.73
2019-02-14T10:38:57.761Z,18.75
2019-02-14T10:40:02.053Z,21.62
2019-02-14T10:41:06.382Z,18.65
2019-02-14T10:42:10.561Z,21.12
2019-02-14T10:43:14.881Z,18.75
2019-02-14T10:44:19.065Z,22.07
2019-02-14T10:45:24.273Z,21.93
2019-02-14T10:46:28.643Z,20.70
2019-02-14T10:47:32.964Z,18.35
2019-02-14T10:48:37.167Z,21.60
2019-02-14T10:49:41.441Z,18.62
2019-02-14T10:50:45.750Z,27.22
2019-02-14T10:51:49.901Z,22.42
2019-02-14T10:52:54.213Z,22.20
2019-02-14T10:53:58.490Z,25.23
2019-02-14T10:55:02.763Z,17.90
2019-02-14T10:56:06.994Z,19.27
2019-02-14T10:57:11.170Z,24.45
2019-02-14T10:58:15.692Z,19.70
2019-02-14T10:59:19.839Z,16.65
2019-02-14T11:00:24.389Z,22.77
2019-02-14T11:01:28.737Z,19.77
2019-02-14T11:02:32.952Z,24.02
2019-02-14T11:03:37.261Z,26.75
2019-02-14T11:04:41.506Z,25.15
2019-02-14T11:05:45.860Z,24.82
2019-02-14T11:06:50.091Z,21.23
2019-02-14T11:07:54.219Z,18.92
2019-02-14T11:08:58.487Z,21.73
2019-02-14T11:10:02.760Z,20.75
2019-02-14T11:11:07.302Z,22.13
2019-02-14T11:12:11.556Z,24.05
2019-02-14T11:13:15.841Z,26.57
2019-02-14T11:14:28.694Z,22.80
2019-02-14T11:15:26.371Z,23.35
2019-02-14T11:16:30.589Z,22.58
2019-02-14T11:17:34.778Z,22.07
2019-02-14T11:18:44.262Z,20.40
2019-02-14T11:19:45.053Z,20.82
2019-02-14T11:20:49.272Z,21.33
2019-02-14T11:21:53.537Z,17.10
2019-02-14T11:22:57.771Z,18.65
2019-02-14T11:24:01.930Z,27.27
2019-02-14T11:25:07.296Z,19.77
2019-02-14T11:26:11.551Z,22.60
2019-02-14T11:27:15.753Z,18.73
2019-02-14T11:28:20.077Z,17.90
2019-02-14T11:29:24.236Z,19.07
2019-02-14T11:30:28.521Z,18.52
2019-02-14T11:31:34.594Z,19.25
2019-02-14T11:32:38.765Z,19.60
2019-02-14T11:33:42.965Z,24.47
2019-02-14T11:34:47.180Z,17.95
2019-02-14T11:35:51.442Z,24.12
2019-02-14T11:36:55.709Z,24.10
2019-02-14T11:37:59.879Z,22.82
2019-02-14T11:39:05.922Z,24.98
2019-02-14T11:40:11.230Z,22.25
2019-02-14T11:41:15.606Z,22.13
2019-02-14T11:42:21.780Z,17.45
2019-02-14T11:43:25.671Z,16.57
2019-02-14T11:44:29.987Z,20.45
2019-02-14T11:45:34.389Z,19.40
2019-02-14T11:46:38.739Z,19.57
2019-02-14T11:47:42.921Z,15.08
2019-02-14T11:48:47.967Z,14.75
2019-02-14T11:49:52.455Z,15.65
2019-02-14T11:50:56.624Z,14.93
2019-02-14T11:52:00.915Z,18.55
2019-02-14T11:53:13.900Z,13.55
2019-02-14T11:54:12.711Z,15.05
2019-02-14T11:55:16.949Z,15.08
2019-02-14T11:56:21.572Z,19.05
2019-02-14T11:57:25.837Z,17.10
2019-02-14T11:58:30.054Z,17.98
2019-02-14T11:59:34.221Z,16.52
2019-02-14T12:00:38.528Z,16.62
2019-02-14T12:01:42.770Z,14.95
2019-02-14T12:02:55.058Z,19.40
2019-02-14T12:03:52.912Z,15.35
2019-02-14T12:04:57.055Z,13.25
2019-02-14T12:06:01.245Z,14.63
2019-02-14T12:07:05.602Z,12.80
2019-02-14T12:08:09.872Z,13.45
2019-02-14T12:09:14.465Z,17.57
2019-02-14T12:10:18.753Z,14.25
2019-02-14T12:11:22.946Z,17.37
2019-02-14T12:12:27.976Z,16.02
2019-02-14T12:13:32.423Z,17.25
2019-02-14T12:14:36.676Z,11.75
2019-02-14T12:15:41.009Z,13.93
2019-02-14T12:16:45.225Z,13.68
2019-02-14T12:17:49.389Z,11.40
2019-02-14T12:18:53.525Z,16.35
2019-02-14T12:19:57.985Z,12.68
2019-02-14T12:21:02.514Z,11.83
2019-02-14T12:22:06.693Z,12.37
2019-02-14T12:23:11.009Z,17.87
2019-02-14T12:24:15.359Z,14.58
2019-02-14T12:25:20.033Z,15.70
2019-02-14T12:26:24.197Z,18.75
2019-02-14T12:27:28.347Z,20.37
2019-02-14T12:28:32.876Z,15.85
2019-02-14T12:29:37.199Z,21.68
2019-02-14T12:30:41.490Z,21.60
2019-02-14T12:31:45.766Z,20.10
2019-02-14T12:32:49.929Z,19.25
2019-02-14T12:33:54.103Z,16.48
2019-02-14T12:34:58.245Z,18.37
2019-02-14T12:36:02.549Z,16.32
2019-02-14T12:37:07.099Z,20.62
2019-02-14T12:38:11.272Z,18.23
2019-02-14T12:39:15.568Z,15.13
2019-02-14T12:40:19.809Z,14.60
2019-02-14T12:41:24.169Z,18.17
2019-02-14T12:42:28.413Z,14.70
2019-02-14T12:43:32.599Z,14.60
2019-02-14T12:44:36.859Z,12.35
2019-02-14T12:45:41.143Z,13.40
2019-02-14T12:46:45.492Z,14.38
2019-02-14T12:47:49.625Z,15.15
2019-02-14T12:48:54.202Z,14.68
2019-02-14T12:49:58.389Z,13.13
2019-02-14T12:51:02.617Z,14.47
2019-02-14T12:52:06.921Z,12.60
2019-02-14T12:53:11.223Z,15.03
2019-02-14T12:54:15.578Z,13.80
2019-02-14T12:55:19.869Z,14.40
2019-02-14T12:56:24.041Z,15.95
2019-02-14T12:57:28.371Z,16.67
2019-02-14T12:58:32.635Z,18.32
2019-02-14T12:59:36.882Z,16.32
2019-02-14T13:00:41.144Z,14.58
2019-02-14T13:01:45.295Z,15.60
2019-02-14T13:02:49.609Z,13.58
2019-02-14T13:03:53.875Z,14.98
2019-02-14T13:04:58.097Z,16.30
2019-02-14T13:06:02.351Z,20.27
2019-02-14T13:07:06.738Z,12.40
2019-02-14T13:08:11.079Z,19.35
2019-02-14T13:09:20.103Z,14.30
2019-02-14T13:10:22.045Z,13.45
2019-02-14T13:11:26.213Z,16.50
2019-02-14T13:12:30.541Z,16.05
2019-02-14T13:13:34.836Z,14.85
2019-02-14T13:14:39.063Z,13.25
2019-02-14T13:15:43.363Z,16.40
2019-02-14T13:16:47.519Z,14.58
2019-02-14T13:17:51.763Z,14.45
2019-02-14T13:18:56.101Z,22.13
2019-02-14T13:20:01.205Z,18.50
2019-02-14T13:21:05.491Z,16.93
2019-02-14T13:22:09.763Z,16.45
2019-02-14T13:23:14.023Z,17.32
2019-02-14T13:24:18.209Z,18.20
2019-02-14T13:25:22.373Z,16.50
2019-02-14T13:26:26.561Z,20.17
2019-02-14T13:27:30.790Z,20.65
2019-02-14T13:28:35.449Z,14.73
2019-02-14T13:29:39.770Z,15.03
2019-02-14T13:30:44.348Z,18.23
2019-02-14T13:31:48.647Z,15.45
2019-02-14T13:32:52.953Z,16.23
2019-02-14T13:33:57.609Z,16.05
2019-02-14T13:35:01.836Z,21.68
2019-02-14T13:36:07.608Z,20.30
2019-02-14T13:37:11.800Z,16.82
2019-02-14T13:38:16.056Z,14.03
2019-02-14T13:39:29.064Z,19.12
2019-02-14T13:40:26.341Z,20.55
2019-02-14T13:41:31.343Z,17.12
2019-02-14T13:42:35.819Z,18.12
2019-02-14T13:43:40.449Z,19.32
2019-02-14T13:44:44.681Z,21.57
2019-02-14T13:45:48.875Z,16.97
2019-02-14T13:46:53.163Z,22.70
2019-02-14T13:47:57.365Z,19.67
2019-02-14T13:49:01.615Z,16.02
2019-02-14T13:50:06.495Z,18.05
2019-02-14T13:51:10.814Z,12.65
2019-02-14T13:52:15.396Z,20.68
2019-02-14T13:53:19.663Z,16.48